Time;durP1;ratioP1;P1;durP2;ratioP2;P2;SDS_P1;SDS_P2;PMS_P1;PMS_P2;Temp;Humidity;BMP_temperature;BMP_pressure;BME280_temperature;BME280_humidity;BME280_pressure;Samples;Min_cycle;Max_cycle;Signal;HPM_P1;HPM_P2
2023/06/10 00:00:15;;;;;;;;;;;21.60;72.00;;;;;;4985607;28;19940;-67
2023/06/10 00:02:42;;;;;;;;;;;21.60;72.10;;;;;;4985953;28;19963;-67
2023/06/10 00:05:08;;;;;;;;;;;21.60;72.00;;;;;;4985854;28;19914;-67
2023/06/10 00:07:37;;;;;;;;;;;21.50;72.20;;;;;;4981908;28;19937;-67
2023/06/10 00:10:05;;;;;;;;;;;21.50;72.30;;;;;;4966692;28;19914;-67
2023/06/10 00:12:31;;;;;;;;;;;21.50;72.10;;;;;;4966497;28;20498;-67
2023/06/10 00:14:56;;;;;;;;;;;21.50;72.40;;;;;;4967105;28;20005;-67
2023/06/10 00:17:22;;;;;;;;;;;21.40;72.20;;;;;;4967466;28;19940;-67
2023/06/10 00:19:50;;;;;;;;;;;21.40;72.40;;;;;;4967501;28;20275;-67
2023/06/10 00:22:16;;;;;;;;;;;21.40;72.40;;;;;;4966399;28;20391;-67
2023/06/10 00:24:42;;;;;;;;;;;21.30;72.50;;;;;;4967566;28;19921;-67
2023/06/10 00:27:07;;;;;;;;;;;21.30;72.50;;;;;;4967371;28;19914;-68
2023/06/10 00:29:33;;;;;;;;;;;21.30;72.50;;;;;;4967207;28;20359;-67
2023/06/10 00:31:58;;;;;;;;;;;21.20;72.40;;;;;;4983410;28;20269;-67
2023/06/10 00:34:24;;;;;;;;;;;21.20;72.60;;;;;;4986705;28;19914;-67
2023/06/10 00:36:50;;;;;;;;;;;21.20;73.00;;;;;;4986719;28;19921;-67
2023/06/10 00:39:16;;;;;;;;;;;21.20;73.00;;;;;;4969856;28;19962;-67
2023/06/10 00:41:42;;;;;;;;;;;21.10;72.90;;;;;;4967564;28;19929;-67
2023/06/10 00:44:07;;;;;;;;;;;21.10;73.00;;;;;;4965887;28;20299;-67
2023/06/10 00:46:33;;;;;;;;;;;21.10;72.80;;;;;;4966952;28;19957;-67
2023/06/10 00:48:59;;;;;;;;;;;21.00;72.90;;;;;;4967198;28;19957;-67
2023/06/10 00:51:25;;;;;;;;;;;21.00;73.10;;;;;;4967486;28;19920;-67
2023/06/10 00:53:52;;;;;;;;;;;21.00;73.10;;;;;;4967234;28;19914;-67
2023/06/10 00:56:17;;;;;;;;;;;21.00;73.30;;;;;;4970354;28;19993;-67
2023/06/10 00:58:43;;;;;;;;;;;20.90;73.40;;;;;;4985962;28;19992;-67
2023/06/10 01:01:10;;;;;;;;;;;20.90;73.50;;;;;;5017707;28;19961;-67
2023/06/10 01:03:37;;;;;;;;;;;20.80;73.50;;;;;;4986326;28;19914;-67
2023/06/10 01:06:09;;;;;;;;;;;20.80;73.30;;;;;;4984751;28;20580;-67
2023/06/10 01:08:46;;;;;;;;;;;20.80;73.60;;;;;;4973678;28;19914;-67
2023/06/10 01:11:19;;;;;;;;;;;20.80;73.40;;;;;;4967182;28;19918;-68
2023/06/10 01:13:45;;;;;;;;;;;20.80;73.70;;;;;;5000038;28;19936;-67
2023/06/10 01:16:11;;;;;;;;;;;20.70;73.70;;;;;;5003190;28;20504;-67
2023/06/10 01:18:38;;;;;;;;;;;20.70;73.80;;;;;;5005608;28;20013;-67
2023/06/10 01:21:04;;;;;;;;;;;20.70;73.70;;;;;;5007965;28;19918;-67
2023/06/10 01:23:29;;;;;;;;;;;20.70;74.30;;;;;;5009091;28;20709;-67
2023/06/10 01:26:07;;;;;;;;;;;20.60;74.00;;;;;;5009064;28;20465;-67
2023/06/10 01:28:53;;;;;;;;;;;20.60;74.30;;;;;;5008946;28;19909;-67
2023/06/10 01:31:25;;;;;;;;;;;20.60;74.20;;;;;;4996753;28;19994;-67
2023/06/10 01:33:54;;;;;;;;;;;20.60;74.10;;;;;;4971311;28;20734;-67
2023/06/10 01:36:21;;;;;;;;;;;20.50;74.40;;;;;;4970122;28;19948;-67
2023/06/10 01:38:47;;;;;;;;;;;20.50;74.60;;;;;;4970210;28;19937;-67
2023/06/10 01:41:14;;;;;;;;;;;20.50;74.60;;;;;;4970249;28;19914;-67
2023/06/10 01:43:40;;;;;;;;;;;20.50;74.80;;;;;;4969735;28;19914;-67
2023/06/10 01:46:05;;;;;;;;;;;20.40;74.60;;;;;;4969895;28;20394;-67
2023/06/10 01:48:32;;;;;;;;;;;20.40;74.80;;;;;;4968490;28;19952;-67
2023/06/10 01:50:57;;;;;;;;;;;20.40;74.80;;;;;;4969918;28;19910;-67
2023/06/10 01:53:23;;;;;;;;;;;20.30;74.70;;;;;;4969736;28;19918;-67
2023/06/10 01:55:48;;;;;;;;;;;20.30;74.80;;;;;;4969406;28;19925;-67
2023/06/10 01:58:14;;;;;;;;;;;20.30;75.00;;;;;;4988542;28;19956;-67
2023/06/10 02:00:39;;;;;;;;;;;20.20;75.10;;;;;;5056054;28;19957;-67
2023/06/10 02:03:05;;;;;;;;;;;20.20;75.10;;;;;;4987741;28;19914;-67
2023/06/10 02:05:30;;;;;;;;;;;20.20;75.20;;;;;;4988462;28;20001;-67
2023/06/10 02:07:56;;;;;;;;;;;20.20;75.20;;;;;;4982674;28;19910;-67
2023/06/10 02:10:21;;;;;;;;;;;20.20;75.20;;;;;;4969572;28;19914;-67
2023/06/10 02:12:47;;;;;;;;;;;20.10;75.20;;;;;;4969672;28;19917;-68
2023/06/10 02:15:12;;;;;;;;;;;20.10;75.70;;;;;;4969328;28;20367;-67
2023/06/10 02:17:38;;;;;;;;;;;20.10;75.80;;;;;;4969345;28;19946;-67
2023/06/10 02:20:06;;;;;;;;;;;20.10;75.30;;;;;;4969103;28;19918;-67
2023/06/10 02:22:32;;;;;;;;;;;20.10;75.90;;;;;;4969349;28;19964;-67
2023/06/10 02:24:58;;;;;;;;;;;20.00;76.00;;;;;;4969164;28;19949;-67
2023/06/10 02:27:23;;;;;;;;;;;20.00;76.20;;;;;;4967853;28;20271;-67
2023/06/10 02:29:49;;;;;;;;;;;20.00;76.00;;;;;;4968900;28;19914;-67
2023/06/10 02:32:14;;;;;;;;;;;20.00;76.20;;;;;;4986985;28;19913;-67
2023/06/10 02:34:42;;;;;;;;;;;19.90;76.10;;;;;;4987034;28;19913;-67
2023/06/10 02:37:08;;;;;;;;;;;19.90;76.40;;;;;;4988514;28;19995;-67
2023/06/10 02:39:34;;;;;;;;;;;19.90;76.40;;;;;;4969198;28;20102;-67
2023/06/10 02:41:59;;;;;;;;;;;19.90;76.30;;;;;;4969192;28;20398;-67
2023/06/10 02:44:25;;;;;;;;;;;19.90;76.70;;;;;;4969154;28;20589;-67
2023/06/10 02:46:50;;;;;;;;;;;19.80;76.60;;;;;;4968900;28;19919;-67
2023/06/10 02:49:16;;;;;;;;;;;19.80;76.60;;;;;;4968893;28;19910;-67
2023/06/10 02:51:41;;;;;;;;;;;19.80;76.90;;;;;;4969114;28;19997;-67
2023/06/10 02:54:07;;;;;;;;;;;19.80;76.70;;;;;;4967500;28;20456;-67
2023/06/10 02:56:33;;;;;;;;;;;19.80;77.40;;;;;;4974065;28;19914;-67
2023/06/10 02:58:58;;;;;;;;;;;19.70;76.80;;;;;;4987765;28;19914;-67
2023/06/10 03:01:24;;;;;;;;;;;19.70;76.90;;;;;;4988164;28;20328;-67
2023/06/10 03:03:50;;;;;;;;;;;19.70;77.20;;;;;;4991238;28;20000;-67
2023/06/10 03:06:15;;;;;;;;;;;19.70;77.20;;;;;;5003359;28;20297;-67
2023/06/10 03:08:41;;;;;;;;;;;19.60;77.30;;;;;;4988200;28;20549;-67
2023/06/10 03:11:07;;;;;;;;;;;19.60;77.40;;;;;;4988302;28;19916;-67
2023/06/10 03:13:32;;;;;;;;;;;19.60;77.10;;;;;;4998274;28;19948;-67
2023/06/10 03:15:58;;;;;;;;;;;19.60;77.10;;;;;;5007466;28;19914;-67
2023/06/10 03:18:27;;;;;;;;;;;19.60;77.30;;;;;;5007437;28;20000;-67
2023/06/10 03:20:53;;;;;;;;;;;19.50;77.70;;;;;;5007321;28;19914;-67
2023/06/10 03:23:19;;;;;;;;;;;19.50;77.70;;;;;;5005661;28;19923;-67
2023/06/10 03:25:45;;;;;;;;;;;19.50;77.70;;;;;;5007174;28;19913;-67
2023/06/10 03:28:10;;;;;;;;;;;19.50;77.70;;;;;;5007508;28;20324;-67
2023/06/10 03:30:36;;;;;;;;;;;19.40;77.80;;;;;;5002109;28;19913;-67
2023/06/10 03:33:01;;;;;;;;;;;19.40;77.60;;;;;;4987742;28;19949;-67
2023/06/10 03:35:27;;;;;;;;;;;19.40;77.60;;;;;;4987219;28;19936;-67
2023/06/10 03:37:52;;;;;;;;;;;19.40;77.80;;;;;;4981887;28;20021;-67
2023/06/10 03:40:18;;;;;;;;;;;19.40;78.00;;;;;;4968158;28;19918;-67
2023/06/10 03:42:44;;;;;;;;;;;19.40;78.20;;;;;;4967376;28;20283;-67
2023/06/10 03:45:09;;;;;;;;;;;19.40;78.10;;;;;;4968132;28;19960;-67
2023/06/10 03:47:35;;;;;;;;;;;19.40;78.20;;;;;;4966646;28;19922;-67
2023/06/10 03:50:03;;;;;;;;;;;19.30;78.10;;;;;;4967934;28;20454;-67
2023/06/10 03:52:28;;;;;;;;;;;19.30;78.00;;;;;;4967923;28;20001;-67
2023/06/10 03:54:54;;;;;;;;;;;19.30;78.20;;;;;;4966664;28;20013;-67
2023/06/10 03:57:20;;;;;;;;;;;19.30;78.30;;;;;;4979077;28;19921;-67
2023/06/10 03:59:45;;;;;;;;;;;19.30;78.50;;;;;;4987039;28;19917;-67
2023/06/10 04:02:11;;;;;;;;;;;19.30;78.50;;;;;;4986072;28;19957;-67
2023/06/10 04:04:37;;;;;;;;;;;19.30;78.40;;;;;;4987249;28;20307;-67
2023/06/10 04:07:03;;;;;;;;;;;19.20;78.30;;;;;;4986999;28;19940;-67
2023/06/10 04:09:29;;;;;;;;;;;19.20;78.60;;;;;;4968570;28;19926;-67
2023/06/10 04:11:54;;;;;;;;;;;19.20;78.70;;;;;;4966521;28;19921;-67
2023/06/10 04:14:19;;;;;;;;;;;19.20;78.70;;;;;;4967666;28;19914;-67
2023/06/10 04:16:45;;;;;;;;;;;19.20;78.80;;;;;;4966163;28;19976;-67
2023/06/10 04:19:10;;;;;;;;;;;19.20;78.80;;;;;;4966189;28;19914;-67
2023/06/10 04:21:36;;;;;;;;;;;19.20;78.80;;;;;;4967905;28;19918;-67
2023/06/10 04:24:02;;;;;;;;;;;19.20;78.90;;;;;;4967330;28;19996;-67
2023/06/10 04:26:27;;;;;;;;;;;19.20;78.80;;;;;;4967386;28;19924;-67
2023/06/10 04:28:53;;;;;;;;;;;19.10;78.70;;;;;;4967308;28;19917;-67
2023/06/10 04:31:19;;;;;;;;;;;19.10;78.70;;;;;;4978221;28;19910;-67
2023/06/10 04:33:45;;;;;;;;;;;19.10;78.80;;;;;;4985474;28;20024;-67
2023/06/10 04:36:10;;;;;;;;;;;19.10;79.00;;;;;;4986664;28;19917;-67
2023/06/10 04:38:36;;;;;;;;;;;19.10;78.90;;;;;;4975131;28;20371;-67
2023/06/10 04:41:02;;;;;;;;;;;19.10;79.00;;;;;;4967038;28;20596;-67
2023/06/10 04:43:28;;;;;;;;;;;19.10;78.70;;;;;;4965647;28;20004;-67
2023/06/10 04:45:54;;;;;;;;;;;19.10;78.50;;;;;;4966824;28;19914;-67
2023/06/10 04:48:19;;;;;;;;;;;19.10;78.90;;;;;;4965955;28;19921;-67
2023/06/10 04:50:45;;;;;;;;;;;19.10;78.70;;;;;;4966914;28;19940;-67
2023/06/10 04:53:10;;;;;;;;;;;19.10;79.00;;;;;;4967245;28;19911;-67
2023/06/10 04:55:36;;;;;;;;;;;19.10;79.10;;;;;;4968279;28;19944;-67
2023/06/10 04:58:01;;;;;;;;;;;19.10;79.00;;;;;;4987918;28;19910;-67
2023/06/10 05:00:27;;;;;;;;;;;19.10;78.90;;;;;;5041680;28;19924;-67
2023/06/10 05:02:53;;;;;;;;;;;19.10;79.10;;;;;;5004802;28;19961;-67
2023/06/10 05:05:19;;;;;;;;;;;19.10;79.00;;;;;;4989112;28;19945;-67
2023/06/10 05:07:44;;;;;;;;;;;19.10;79.00;;;;;;4985486;28;19921;-67
2023/06/10 05:10:10;;;;;;;;;;;19.10;79.10;;;;;;4995569;28;20465;-67
2023/06/10 05:12:35;;;;;;;;;;;19.10;78.80;;;;;;5009626;28;19914;-67
2023/06/10 05:15:01;;;;;;;;;;;19.10;79.00;;;;;;5009196;28;19944;-67
2023/06/10 05:17:27;;;;;;;;;;;19.10;79.20;;;;;;5009201;28;20347;-67
2023/06/10 05:19:52;;;;;;;;;;;19.10;78.90;;;;;;5009112;28;19966;-67
2023/06/10 05:22:18;;;;;;;;;;;19.10;79.20;;;;;;5008077;28;19917;-67
2023/06/10 05:24:44;;;;;;;;;;;19.10;79.00;;;;;;5009391;28;19955;-67
2023/06/10 05:27:10;;;;;;;;;;;19.10;79.00;;;;;;5009156;28;19921;-67
2023/06/10 05:29:35;;;;;;;;;;;19.10;79.20;;;;;;5007752;28;20070;-67
2023/06/10 05:32:03;;;;;;;;;;;19.10;78.80;;;;;;4992613;28;20457;-67
2023/06/10 05:34:31;;;;;;;;;;;19.10;79.00;;;;;;4989571;28;20282;-67
2023/06/10 05:36:58;;;;;;;;;;;19.10;78.90;;;;;;4988503;28;20416;-67
2023/06/10 05:39:24;;;;;;;;;;;19.10;78.60;;;;;;4971446;28;19946;-67
2023/06/10 05:41:49;;;;;;;;;;;19.10;78.70;;;;;;4970123;28;19914;-67
2023/06/10 05:44:15;;;;;;;;;;;19.10;78.80;;;;;;4969892;28;19917;-67
2023/06/10 05:46:40;;;;;;;;;;;19.10;78.80;;;;;;4968431;28;19945;-67
2023/06/10 05:49:06;;;;;;;;;;;19.10;78.60;;;;;;4969765;28;19914;-67
2023/06/10 05:51:31;;;;;;;;;;;19.10;78.80;;;;;;4969927;28;19948;-67
2023/06/10 05:53:57;;;;;;;;;;;19.10;78.70;;;;;;4969747;28;19917;-67
2023/06/10 05:56:23;;;;;;;;;;;19.10;78.60;;;;;;4973631;28;19914;-67
2023/06/10 05:58:48;;;;;;;;;;;19.10;78.70;;;;;;4988640;28;20009;-67
2023/06/10 06:01:14;;;;;;;;;;;19.10;78.70;;;;;;4989185;28;19988;-67
2023/06/10 06:03:39;;;;;;;;;;;19.10;78.80;;;;;;4989007;28;19917;-67
2023/06/10 06:06:05;;;;;;;;;;;19.10;78.80;;;;;;4988240;28;20681;-67
2023/06/10 06:08:31;;;;;;;;;;;19.20;78.70;;;;;;4978179;28;19921;-67
2023/06/10 06:10:56;;;;;;;;;;;19.20;78.60;;;;;;4969599;28;20572;-67
2023/06/10 06:13:22;;;;;;;;;;;19.20;78.60;;;;;;4969602;28;19914;-67
2023/06/10 06:15:47;;;;;;;;;;;19.20;78.60;;;;;;4969260;28;20005;-67
2023/06/10 06:18:13;;;;;;;;;;;19.20;78.70;;;;;;4969560;28;19914;-67
2023/06/10 06:20:38;;;;;;;;;;;19.20;78.80;;;;;;4969282;28;19925;-67
2023/06/10 06:23:04;;;;;;;;;;;19.20;78.70;;;;;;4969128;28;20366;-67
2023/06/10 06:25:29;;;;;;;;;;;19.20;78.60;;;;;;4969174;28;20598;-67
2023/06/10 06:27:55;;;;;;;;;;;19.20;78.50;;;;;;4969580;28;19925;-67
2023/06/10 06:30:20;;;;;;;;;;;19.20;78.50;;;;;;4971873;28;19945;-67
2023/06/10 06:32:46;;;;;;;;;;;19.30;78.40;;;;;;4988863;28;19910;-67
2023/06/10 06:35:11;;;;;;;;;;;19.30;78.60;;;;;;4988461;28;19953;-67
2023/06/10 06:37:37;;;;;;;;;;;19.30;78.70;;;;;;4984732;28;19917;-67
2023/06/10 06:40:03;;;;;;;;;;;19.30;78.50;;;;;;4969289;28;20279;-67
2023/06/10 06:42:29;;;;;;;;;;;19.30;78.40;;;;;;4969137;28;19911;-67
2023/06/10 06:44:54;;;;;;;;;;;19.30;78.30;;;;;;4969050;28;19920;-67
2023/06/10 06:47:20;;;;;;;;;;;19.30;78.00;;;;;;4968734;28;19964;-67
2023/06/10 06:49:46;;;;;;;;;;;19.40;78.40;;;;;;4968902;28;20070;-67
2023/06/10 06:52:12;;;;;;;;;;;19.30;78.30;;;;;;4968958;28;19914;-67
2023/06/10 06:54:37;;;;;;;;;;;19.30;78.30;;;;;;4969207;28;20271;-67
2023/06/10 06:57:03;;;;;;;;;;;19.40;78.30;;;;;;4998254;28;19961;-67
2023/06/10 06:59:28;;;;;;;;;;;19.40;78.20;;;;;;4989256;28;19916;-67
2023/06/10 07:01:54;;;;;;;;;;;19.40;78.10;;;;;;5027475;28;19920;-67
2023/06/10 07:04:21;;;;;;;;;;;19.40;78.10;;;;;;5071478;28;19913;-67
2023/06/10 07:06:47;;;;;;;;;;;19.40;78.00;;;;;;4987808;28;19914;-67
2023/06/10 07:09:13;;;;;;;;;;;19.50;78.10;;;;;;4994265;28;19962;-67
2023/06/10 07:11:38;;;;;;;;;;;19.50;78.00;;;;;;5007880;28;19994;-67
2023/06/10 07:14:04;;;;;;;;;;;19.50;78.00;;;;;;5007328;28;19936;-67
2023/06/10 07:16:29;;;;;;;;;;;19.50;78.10;;;;;;5007425;28;19913;-67
2023/06/10 07:18:55;;;;;;;;;;;19.50;77.90;;;;;;5006102;28;19917;-67
2023/06/10 07:21:22;;;;;;;;;;;19.50;78.10;;;;;;5007463;28;19957;-67
2023/06/10 07:23:47;;;;;;;;;;;19.50;77.70;;;;;;5006670;28;19918;-67
2023/06/10 07:26:13;;;;;;;;;;;19.50;77.80;;;;;;5007364;28;19916;-67
2023/06/10 07:28:41;;;;;;;;;;;19.60;77.60;;;;;;5007334;28;20413;-67
2023/06/10 07:31:07;;;;;;;;;;;19.60;77.70;;;;;;4998220;28;19910;-67
2023/06/10 07:33:33;;;;;;;;;;;19.60;77.50;;;;;;4987286;28;19967;-67
2023/06/10 07:35:59;;;;;;;;;;;19.60;77.40;;;;;;4987132;28;19917;-67
2023/06/10 07:38:25;;;;;;;;;;;19.60;77.30;;;;;;4977519;28;20527;-67
2023/06/10 07:40:50;;;;;;;;;;;19.60;77.30;;;;;;4968152;28;19965;-67
2023/06/10 07:43:16;;;;;;;;;;;19.70;77.30;;;;;;4968343;28;19938;-67
2023/06/10 07:45:42;;;;;;;;;;;19.70;77.30;;;;;;4970763;28;19980;-67
2023/06/10 07:48:08;;;;;;;;;;;19.70;77.20;;;;;;4987665;28;20513;-67
2023/06/10 07:50:34;;;;;;;;;;;19.70;77.10;;;;;;4987235;28;19910;-67
2023/06/10 07:52:59;;;;;;;;;;;19.80;77.00;;;;;;4987478;28;20390;-67
2023/06/10 07:55:28;;;;;;;;;;;19.80;76.90;;;;;;4983072;28;19932;-67
2023/06/10 07:57:54;;;;;;;;;;;19.80;76.90;;;;;;4984148;28;19956;-67
2023/06/10 08:00:20;;;;;;;;;;;19.80;76.80;;;;;;4987171;28;19964;-67
2023/06/10 08:02:45;;;;;;;;;;;19.90;76.80;;;;;;4987469;28;19956;-67
2023/06/10 08:05:11;;;;;;;;;;;19.90;76.80;;;;;;4986910;28;20583;-67
2023/06/10 08:07:36;;;;;;;;;;;20.00;76.70;;;;;;4983424;28;19963;-67
2023/06/10 08:10:02;;;;;;;;;;;19.90;76.60;;;;;;4967908;28;20363;-67
2023/06/10 08:12:28;;;;;;;;;;;20.00;76.60;;;;;;4967885;28;19957;-67
2023/06/10 08:14:54;;;;;;;;;;;20.00;76.50;;;;;;4967797;28;19949;-67
2023/06/10 08:17:20;;;;;;;;;;;20.00;76.40;;;;;;4967517;28;19921;-67
2023/06/10 08:19:45;;;;;;;;;;;20.10;76.40;;;;;;4967611;28;19917;-67
2023/06/10 08:22:11;;;;;;;;;;;20.10;76.30;;;;;;4967049;28;19975;-67
2023/06/10 08:24:37;;;;;;;;;;;20.10;76.20;;;;;;4968189;28;19914;-67
2023/06/10 08:27:02;;;;;;;;;;;20.20;76.20;;;;;;4967337;28;19914;-67
2023/06/10 08:29:29;;;;;;;;;;;20.20;76.20;;;;;;4967178;28;20008;-67
2023/06/10 08:31:55;;;;;;;;;;;20.20;76.10;;;;;;4982997;28;19914;-67
2023/06/10 08:34:20;;;;;;;;;;;20.30;76.10;;;;;;4986761;28;20451;-67
2023/06/10 08:36:46;;;;;;;;;;;20.30;75.90;;;;;;4985531;28;20096;-67
2023/06/10 08:39:11;;;;;;;;;;;20.40;75.90;;;;;;4970637;28;19916;-67
2023/06/10 08:41:40;;;;;;;;;;;20.40;75.80;;;;;;4966143;28;20436;-67
2023/06/10 08:44:08;;;;;;;;;;;20.50;75.70;;;;;;4967369;28;19953;-67
2023/06/10 08:46:34;;;;;;;;;;;20.50;75.60;;;;;;4966001;28;19914;-67
2023/06/10 08:49:02;;;;;;;;;;;20.50;75.50;;;;;;4967236;28;20009;-67
2023/06/10 08:51:29;;;;;;;;;;;20.60;75.50;;;;;;4966158;28;19953;-67
2023/06/10 08:54:00;;;;;;;;;;;20.60;75.30;;;;;;5005265;28;20033;-67
2023/06/10 08:56:27;;;;;;;;;;;20.70;75.30;;;;;;4992755;28;19962;-67
2023/06/10 08:58:53;;;;;;;;;;;20.70;75.40;;;;;;5003805;28;19921;-67
2023/06/10 09:01:19;;;;;;;;;;;20.80;75.30;;;;;;5029143;28;19914;-67
2023/06/10 09:03:44;;;;;;;;;;;20.80;75.20;;;;;;4986644;28;20300;-67
2023/06/10 09:06:10;;;;;;;;;;;20.90;75.10;;;;;;4986566;28;20010;-67
2023/06/10 09:08:35;;;;;;;;;;;20.90;75.00;;;;;;4975169;28;19952;-67
2023/06/10 09:11:01;;;;;;;;;;;20.90;74.90;;;;;;4967295;28;20025;-67
2023/06/10 09:13:26;;;;;;;;;;;21.00;75.00;;;;;;4973082;28;19917;-67
2023/06/10 09:15:52;;;;;;;;;;;21.00;74.80;;;;;;5005666;28;20375;-67
2023/06/10 09:18:17;;;;;;;;;;;21.10;74.80;;;;;;5006121;28;19909;-67
2023/06/10 09:20:43;;;;;;;;;;;21.10;74.80;;;;;;5005860;28;19920;-67
2023/06/10 09:23:09;;;;;;;;;;;21.20;74.80;;;;;;5005558;28;19998;-67
2023/06/10 09:25:36;;;;;;;;;;;21.20;74.70;;;;;;5005663;28;20350;-67
2023/06/10 09:28:02;;;;;;;;;;;21.30;74.50;;;;;;5006038;28;19909;-67
2023/06/10 09:30:34;;;;;;;;;;;21.30;74.60;;;;;;5001560;28;20358;-67
2023/06/10 09:33:02;;;;;;;;;;;21.40;74.50;;;;;;4984931;28;20017;-67
2023/06/10 09:35:29;;;;;;;;;;;21.50;74.40;;;;;;4984621;28;19910;-67
2023/06/10 09:37:55;;;;;;;;;;;21.50;74.30;;;;;;4980104;28;20505;-66
2023/06/10 09:40:20;;;;;;;;;;;21.60;74.50;;;;;;4966698;28;20275;-67
2023/06/10 09:42:53;;;;;;;;;;;21.60;74.30;;;;;;4968757;28;19918;-67
2023/06/10 09:45:19;;;;;;;;;;;21.70;74.20;;;;;;4988277;28;19941;-67
2023/06/10 09:47:45;;;;;;;;;;;21.70;74.30;;;;;;4988230;28;20002;-67
2023/06/10 09:50:11;;;;;;;;;;;21.80;74.60;;;;;;4989520;28;19921;-67
2023/06/10 09:52:37;;;;;;;;;;;21.90;74.20;;;;;;4989440;28;19917;-67
2023/06/10 09:55:02;;;;;;;;;;;21.90;74.30;;;;;;4989474;28;20416;-66
2023/06/10 09:57:35;;;;;;;;;;;22.00;74.30;;;;;;4987019;28;20389;-67
2023/06/10 10:00:11;;;;;;;;;;;22.00;74.10;;;;;;4988874;28;19914;-66
2023/06/10 10:02:44;;;;;;;;;;;22.20;74.10;;;;;;5020930;28;19916;-66
2023/06/10 10:05:09;;;;;;;;;;;22.20;74.00;;;;;;4994211;28;19949;-66
2023/06/10 10:07:35;;;;;;;;;;;22.30;74.00;;;;;;4985737;28;20015;-67
2023/06/10 10:10:00;;;;;;;;;;;22.30;74.00;;;;;;4968585;28;19910;-66
2023/06/10 10:12:26;;;;;;;;;;;22.40;73.90;;;;;;4969682;28;19911;-66
2023/06/10 10:14:52;;;;;;;;;;;22.50;73.90;;;;;;4969671;28;19910;-66
2023/06/10 10:17:20;;;;;;;;;;;22.60;73.90;;;;;;4969367;28;20000;-66
2023/06/10 10:19:50;;;;;;;;;;;22.70;74.10;;;;;;4969587;28;20383;-66
2023/06/10 10:22:19;;;;;;;;;;;22.70;73.90;;;;;;4973992;28;19928;-66
2023/06/10 10:24:53;;;;;;;;;;;22.80;73.90;;;;;;4987481;28;20005;-66
2023/06/10 10:27:27;;;;;;;;;;;22.90;73.80;;;;;;4988092;28;20328;-66
2023/06/10 10:29:53;;;;;;;;;;;23.00;73.70;;;;;;4986082;28;20321;-67
2023/06/10 10:32:22;;;;;;;;;;;23.10;73.90;;;;;;4987853;28;19917;-66
2023/06/10 10:35:01;;;;;;;;;;;23.20;73.80;;;;;;4987276;28;20000;-66
2023/06/10 10:37:27;;;;;;;;;;;23.20;73.60;;;;;;4985214;28;19913;-66
2023/06/10 10:39:52;;;;;;;;;;;23.30;73.90;;;;;;4983726;28;19925;-67
2023/06/10 10:42:18;;;;;;;;;;;23.40;73.70;;;;;;5002211;28;19908;-66
2023/06/10 10:44:44;;;;;;;;;;;23.50;73.80;;;;;;4985776;28;19921;-67
2023/06/10 10:47:10;;;;;;;;;;;23.60;73.80;;;;;;4987078;28;19921;-66
2023/06/10 10:49:36;;;;;;;;;;;23.70;73.80;;;;;;5001919;28;19914;-66
2023/06/10 10:52:05;;;;;;;;;;;23.80;74.00;;;;;;4998851;28;19924;-66
2023/06/10 10:54:31;;;;;;;;;;;24.00;74.40;;;;;;5090058;28;19912;-66
2023/06/10 10:57:09;;;;;;;;;;;24.10;73.60;;;;;;5010601;28;19918;-66
2023/06/10 10:59:43;;;;;;;;;;;24.10;73.50;;;;;;4984322;28;19917;-66
2023/06/10 11:02:08;;;;;;;;;;;24.30;73.20;;;;;;4987801;28;19920;-66
2023/06/10 11:04:34;;;;;;;;;;;24.40;73.20;;;;;;4987954;28;19921;-66
2023/06/10 11:07:06;;;;;;;;;;;24.50;73.30;;;;;;4988012;28;19914;-66
2023/06/10 11:09:31;;;;;;;;;;;24.60;73.30;;;;;;4969285;28;19914;-66
2023/06/10 11:11:59;;;;;;;;;;;24.70;73.60;;;;;;4968752;28;19916;-66
2023/06/10 11:14:32;;;;;;;;;;;24.80;73.30;;;;;;4985977;28;19913;-66
2023/06/10 11:16:58;;;;;;;;;;;25.00;73.30;;;;;;5007374;28;19920;-66
2023/06/10 11:19:34;;;;;;;;;;;25.10;73.20;;;;;;5007403;28;19920;-66
2023/06/10 11:22:07;;;;;;;;;;;25.20;73.30;;;;;;5007501;28;19972;-66
2023/06/10 11:24:33;;;;;;;;;;;25.30;73.10;;;;;;5007313;28;19917;-66
2023/06/10 11:27:20;;;;;;;;;;;25.40;72.80;;;;;;5005736;28;19916;-66
2023/06/10 11:29:55;;;;;;;;;;;25.50;73.00;;;;;;5007055;28;20005;-66
2023/06/10 11:32:20;;;;;;;;;;;25.60;72.80;;;;;;4987450;28;19921;-66
2023/06/10 11:34:51;;;;;;;;;;;25.70;72.70;;;;;;4986881;28;20310;-66
2023/06/10 11:37:17;;;;;;;;;;;25.70;72.20;;;;;;4986071;28;19910;-66
2023/06/10 11:39:43;;;;;;;;;;;25.80;72.50;;;;;;4968084;28;20387;-66
2023/06/10 11:42:08;;;;;;;;;;;25.90;72.60;;;;;;4968470;28;19950;-66
2023/06/10 11:44:37;;;;;;;;;;;26.00;72.60;;;;;;4968161;28;19949;-66
2023/06/10 11:47:03;;;;;;;;;;;26.00;72.40;;;;;;4966562;28;20315;-66
2023/06/10 11:49:29;;;;;;;;;;;26.10;72.40;;;;;;4966660;28;20525;-66
2023/06/10 11:51:56;;;;;;;;;;;26.20;72.20;;;;;;4968211;28;20076;-66
2023/06/10 11:54:22;;;;;;;;;;;26.30;72.00;;;;;;4968186;28;19956;-66
2023/06/10 11:56:48;;;;;;;;;;;26.40;72.30;;;;;;4975332;28;19952;-66
2023/06/10 11:59:14;;;;;;;;;;;26.50;71.80;;;;;;4986880;28;19940;-66
2023/06/10 12:01:44;;;;;;;;;;;26.60;71.70;;;;;;4987308;28;19917;-66
2023/06/10 12:04:10;;;;;;;;;;;26.60;71.50;;;;;;4986491;28;19921;-66
2023/06/10 12:06:48;;;;;;;;;;;26.70;71.40;;;;;;4987090;28;19910;-66
2023/06/10 12:09:14;;;;;;;;;;;26.70;70.90;;;;;;4969635;28;19979;-66
2023/06/10 12:11:40;;;;;;;;;;;26.80;71.50;;;;;;4994140;28;20452;-66
2023/06/10 12:14:05;;;;;;;;;;;26.90;71.20;;;;;;4986532;28;20004;-66
2023/06/10 12:16:31;;;;;;;;;;;26.90;71.30;;;;;;4985021;28;19925;-66
2023/06/10 12:19:04;;;;;;;;;;;27.10;71.10;;;;;;5046355;28;19973;-66
2023/06/10 12:21:30;;;;;;;;;;;27.20;69.90;;;;;;4990580;28;20302;-66
2023/06/10 12:24:02;;;;;;;;;;;27.20;70.60;;;;;;4986014;28;19926;-66
2023/06/10 12:26:36;;;;;;;;;;;27.30;70.90;;;;;;4986825;28;19910;-66
2023/06/10 12:29:02;;;;;;;;;;;27.40;70.90;;;;;;4986706;28;19918;-67
2023/06/10 12:31:27;;;;;;;;;;;27.40;70.70;;;;;;4986734;28;19910;-66
2023/06/10 12:34:08;;;;;;;;;;;27.50;70.90;;;;;;4990986;28;19917;-66
2023/06/10 12:36:34;;;;;;;;;;;27.50;70.40;;;;;;4983562;28;19970;-66
2023/06/10 12:39:03;;;;;;;;;;;27.60;70.20;;;;;;4971687;28;19924;-66
2023/06/10 12:41:29;;;;;;;;;;;27.70;70.40;;;;;;4967286;28;19915;-66
2023/06/10 12:43:54;;;;;;;;;;;27.70;70.80;;;;;;4967140;28;19921;-67
2023/06/10 12:46:20;;;;;;;;;;;27.80;70.00;;;;;;4967017;28;19950;-66
2023/06/10 12:48:51;;;;;;;;;;;27.90;69.60;;;;;;4966903;28;20274;-66
2023/06/10 12:51:16;;;;;;;;;;;28.00;68.60;;;;;;4966571;28;19914;-67
2023/06/10 12:53:43;;;;;;;;;;;28.10;67.70;;;;;;4986375;28;19914;-66
2023/06/10 12:56:09;;;;;;;;;;;28.10;69.90;;;;;;4986050;28;20392;-66
2023/06/10 12:58:34;;;;;;;;;;;28.20;70.00;;;;;;5057627;28;19920;-66
2023/06/10 13:01:00;;;;;;;;;;;28.20;69.90;;;;;;5041712;28;20338;-66
2023/06/10 13:03:26;;;;;;;;;;;28.30;69.10;;;;;;5087263;28;19912;-66
2023/06/10 13:05:51;;;;;;;;;;;28.30;69.60;;;;;;5003147;28;19917;-66
2023/06/10 13:08:17;;;;;;;;;;;28.40;69.10;;;;;;4977213;28;20310;-66
2023/06/10 13:10:42;;;;;;;;;;;28.40;68.70;;;;;;4966612;28;19910;-66
2023/06/10 13:13:09;;;;;;;;;;;28.50;69.10;;;;;;4966652;28;20363;-66
2023/06/10 13:15:37;;;;;;;;;;;28.50;69.20;;;;;;4968134;28;20650;-66
2023/06/10 13:18:03;;;;;;;;;;;28.60;68.90;;;;;;4999935;28;19909;-66
2023/06/10 13:20:29;;;;;;;;;;;28.60;68.70;;;;;;5009212;28;20275;-66
2023/06/10 13:22:55;;;;;;;;;;;28.70;68.60;;;;;;5009226;28;19928;-66
2023/06/10 13:25:20;;;;;;;;;;;28.70;68.70;;;;;;5009052;28;19913;-66
2023/06/10 13:27:46;;;;;;;;;;;28.80;68.70;;;;;;5009181;28;19909;-66
2023/06/10 13:30:11;;;;;;;;;;;28.80;68.90;;;;;;5007532;28;19909;-67
2023/06/10 13:32:37;;;;;;;;;;;28.80;68.10;;;;;;4989909;28;20017;-66
2023/06/10 13:35:03;;;;;;;;;;;28.90;68.70;;;;;;4989567;28;19956;-66
2023/06/10 13:37:28;;;;;;;;;;;28.90;67.50;;;;;;4986706;28;20373;-66
2023/06/10 13:39:54;;;;;;;;;;;29.10;67.00;;;;;;4970030;28;19913;-66
2023/06/10 13:42:20;;;;;;;;;;;29.10;67.60;;;;;;4970140;28;19915;-66
2023/06/10 13:44:47;;;;;;;;;;;29.20;65.10;;;;;;4969922;28;19914;-66
2023/06/10 13:47:13;;;;;;;;;;;29.20;67.50;;;;;;4968609;28;19917;-66
2023/06/10 13:49:38;;;;;;;;;;;29.30;66.50;;;;;;4969818;28;19915;-66
2023/06/10 13:52:07;;;;;;;;;;;29.20;67.70;;;;;;4969720;28;19918;-66
2023/06/10 13:54:33;;;;;;;;;;;29.30;66.40;;;;;;4969062;28;19918;-66
2023/06/10 13:57:00;;;;;;;;;;;29.40;67.10;;;;;;4977862;28;20351;-66
2023/06/10 13:59:26;;;;;;;;;;;29.40;66.30;;;;;;4987552;28;19914;-66
2023/06/10 14:01:51;;;;;;;;;;;29.50;66.10;;;;;;4988489;28;19914;-66
2023/06/10 14:04:17;;;;;;;;;;;29.50;65.80;;;;;;4988541;28;19910;-66
2023/06/10 14:06:42;;;;;;;;;;;29.60;65.20;;;;;;4988891;28;19910;-66
2023/06/10 14:09:08;;;;;;;;;;;29.60;65.20;;;;;;4973326;28;19917;-66
2023/06/10 14:11:33;;;;;;;;;;;29.70;64.20;;;;;;4969609;28;20306;-66